Terminal Aerodrome Forecast
Issued by NWS

Home | Current Version | Previous Version | Text Only | Print | Product List | Glossary Off
Versions: 1 2 3 4 5 6 7 8 9 10 11 12

935
FTUS43 KABR 252331
TAFMBG
TAF
KMBG 252331Z 2600/2624 32017G27KT P6SM SKC
     FM260200 30011KT P6SM SKC
     FM261600 30018G27KT P6SM SKC=

USA.gov is the U.S. government's official web portal to all federal, state and local government web resources and services.